Overton, Texas
Current Conditions -  °F | °C
As of 12:55 AM on Thursday 23 Oct 2014 (Local Time) from KRFI Reporting Station
Clear Clear  
Wind Chill: 61°   Ceiling: Unl
Heat Index: 61°   Visibility: 10mi
Dew Point: 53°   Wind: 3mph
Humidity: 74%   Direction: 90°E
Pressure: 30.13"   Gusts: NA
Location:  32.27°N, 94.98°W
Report Text: KRFI 230555Z AUTO 09003KT 10SM CLR 16/12 A3013 RMK AO2 T01610115 10183 20147 402620124
Loading
Personal Weather Stations






























Interactive Weather Map
Tropical Storm Tracking
New forecast layout! Learn more

10-Day Weather Forecast

Advertisements
Track Severe Weather on mobile